sensor_id;sensor_type;location;lat;lon;timestamp;P1;durP1;ratioP1;P2;durP2;ratioP2
58681;SDS011;44460;40.162;18.294;2022-07-31T00:01:14;8.40;;;4.95;;
58681;SDS011;44460;40.162;18.294;2022-07-31T00:03:39;11.75;;;5.15;;
58681;SDS011;44460;40.162;18.294;2022-07-31T00:06:06;9.60;;;5.20;;
58681;SDS011;44460;40.162;18.294;2022-07-31T00:08:31;11.13;;;5.15;;
58681;SDS011;44460;40.162;18.294;2022-07-31T00:10:57;11.15;;;5.20;;
58681;SDS011;44460;40.162;18.294;2022-07-31T00:13:22;13.55;;;5.15;;
58681;SDS011;44460;40.162;18.294;2022-07-31T00:15:48;11.23;;;4.60;;
58681;SDS011;44460;40.162;18.294;2022-07-31T00:18:13;10.13;;;5.05;;
58681;SDS011;44460;40.162;18.294;2022-07-31T00:20:38;11.82;;;4.80;;
58681;SDS011;44460;40.162;18.294;2022-07-31T00:23:04;13.35;;;5.35;;
58681;SDS011;44460;40.162;18.294;2022-07-31T00:25:29;10.45;;;5.30;;
58681;SDS011;44460;40.162;18.294;2022-07-31T00:27:56;9.25;;;4.97;;
58681;SDS011;44460;40.162;18.294;2022-07-31T00:30:21;9.85;;;4.93;;
58681;SDS011;44460;40.162;18.294;2022-07-31T00:32:47;11.13;;;5.18;;
58681;SDS011;44460;40.162;18.294;2022-07-31T00:35:12;11.15;;;5.30;;
58681;SDS011;44460;40.162;18.294;2022-07-31T00:37:41;12.65;;;5.20;;
58681;SDS011;44460;40.162;18.294;2022-07-31T00:40:07;9.25;;;5.10;;
58681;SDS011;44460;40.162;18.294;2022-07-31T00:44:59;9.18;;;4.70;;
58681;SDS011;44460;40.162;18.294;2022-07-31T00:47:25;12.27;;;5.40;;
58681;SDS011;44460;40.162;18.294;2022-07-31T00:49:51;9.90;;;5.38;;
58681;SDS011;44460;40.162;18.294;2022-07-31T00:52:17;9.82;;;4.85;;
58681;SDS011;44460;40.162;18.294;2022-07-31T00:54:42;13.10;;;5.25;;
58681;SDS011;44460;40.162;18.294;2022-07-31T00:57:08;10.05;;;5.30;;
58681;SDS011;44460;40.162;18.294;2022-07-31T00:59:33;10.23;;;5.45;;
58681;SDS011;44460;40.162;18.294;2022-07-31T01:01:59;10.27;;;5.30;;
58681;SDS011;44460;40.162;18.294;2022-07-31T01:04:24;10.55;;;5.25;;
58681;SDS011;44460;40.162;18.294;2022-07-31T01:06:53;15.75;;;5.90;;
58681;SDS011;44460;40.162;18.294;2022-07-31T01:09:19;11.15;;;5.63;;
58681;SDS011;44460;40.162;18.294;2022-07-31T01:14:36;10.18;;;5.63;;
58681;SDS011;44460;40.162;18.294;2022-07-31T01:17:02;11.43;;;5.60;;
58681;SDS011;44460;40.162;18.294;2022-07-31T01:19:30;11.73;;;6.20;;
58681;SDS011;44460;40.162;18.294;2022-07-31T01:27:17;12.32;;;5.60;;
58681;SDS011;44460;40.162;18.294;2022-07-31T01:32:13;12.10;;;5.28;;
58681;SDS011;44460;40.162;18.294;2022-07-31T01:40:00;11.23;;;5.75;;
58681;SDS011;44460;40.162;18.294;2022-07-31T01:42:27;18.40;;;5.88;;
58681;SDS011;44460;40.162;18.294;2022-07-31T01:44:53;10.85;;;5.40;;
58681;SDS011;44460;40.162;18.294;2022-07-31T01:47:22;13.55;;;5.30;;
58681;SDS011;44460;40.162;18.294;2022-07-31T01:49:48;16.40;;;5.45;;
58681;SDS011;44460;40.162;18.294;2022-07-31T01:52:15;10.98;;;5.53;;
58681;SDS011;44460;40.162;18.294;2022-07-31T01:54:42;13.70;;;5.30;;
58681;SDS011;44460;40.162;18.294;2022-07-31T01:57:08;12.80;;;5.70;;
58681;SDS011;44460;40.162;18.294;2022-07-31T01:59:40;13.02;;;5.47;;
58681;SDS011;44460;40.162;18.294;2022-07-31T02:02:17;11.32;;;5.18;;
58681;SDS011;44460;40.162;18.294;2022-07-31T02:04:43;12.90;;;4.80;;
58681;SDS011;44460;40.162;18.294;2022-07-31T02:07:12;20.08;;;5.65;;
58681;SDS011;44460;40.162;18.294;2022-07-31T02:09:39;12.65;;;5.38;;
58681;SDS011;44460;40.162;18.294;2022-07-31T02:12:05;13.48;;;4.88;;
58681;SDS011;44460;40.162;18.294;2022-07-31T02:14:31;18.58;;;5.63;;
58681;SDS011;44460;40.162;18.294;2022-07-31T02:16:58;14.20;;;5.03;;
58681;SDS011;44460;40.162;18.294;2022-07-31T02:19:40;16.80;;;5.18;;
58681;SDS011;44460;40.162;18.294;2022-07-31T02:22:07;13.55;;;4.88;;
58681;SDS011;44460;40.162;18.294;2022-07-31T02:24:33;19.38;;;5.03;;
58681;SDS011;44460;40.162;18.294;2022-07-31T02:26:58;11.65;;;4.75;;
58681;SDS011;44460;40.162;18.294;2022-07-31T02:29:24;15.30;;;5.20;;
58681;SDS011;44460;40.162;18.294;2022-07-31T02:31:52;18.70;;;5.75;;
58681;SDS011;44460;40.162;18.294;2022-07-31T02:34:19;15.93;;;5.35;;
58681;SDS011;44460;40.162;18.294;2022-07-31T02:36:46;13.85;;;5.15;;
58681;SDS011;44460;40.162;18.294;2022-07-31T02:39:13;13.27;;;4.93;;
58681;SDS011;44460;40.162;18.294;2022-07-31T02:41:39;14.30;;;5.05;;
58681;SDS011;44460;40.162;18.294;2022-07-31T02:44:06;18.45;;;5.43;;
58681;SDS011;44460;40.162;18.294;2022-07-31T02:46:33;16.70;;;5.50;;
58681;SDS011;44460;40.162;18.294;2022-07-31T02:48:59;17.52;;;5.53;;
58681;SDS011;44460;40.162;18.294;2022-07-31T02:51:26;18.00;;;6.43;;
58681;SDS011;44460;40.162;18.294;2022-07-31T02:53:52;15.45;;;5.13;;
58681;SDS011;44460;40.162;18.294;2022-07-31T02:58:45;16.13;;;5.18;;
58681;SDS011;44460;40.162;18.294;2022-07-31T03:01:19;11.05;;;5.28;;
58681;SDS011;44460;40.162;18.294;2022-07-31T03:03:45;11.93;;;4.50;;
58681;SDS011;44460;40.162;18.294;2022-07-31T03:06:10;12.57;;;5.20;;
58681;SDS011;44460;40.162;18.294;2022-07-31T03:08:36;15.98;;;5.05;;
58681;SDS011;44460;40.162;18.294;2022-07-31T03:11:04;17.98;;;6.25;;
58681;SDS011;44460;40.162;18.294;2022-07-31T03:13:30;14.48;;;5.20;;
58681;SDS011;44460;40.162;18.294;2022-07-31T03:15:56;16.88;;;5.35;;
58681;SDS011;44460;40.162;18.294;2022-07-31T03:18:22;21.15;;;5.22;;
58681;SDS011;44460;40.162;18.294;2022-07-31T03:20:48;17.55;;;6.05;;
58681;SDS011;44460;40.162;18.294;2022-07-31T03:23:19;15.32;;;5.07;;
58681;SDS011;44460;40.162;18.294;2022-07-31T03:26:01;11.52;;;5.07;;
58681;SDS011;44460;40.162;18.294;2022-07-31T03:28:26;19.60;;;6.20;;
58681;SDS011;44460;40.162;18.294;2022-07-31T03:30:52;16.13;;;6.78;;
58681;SDS011;44460;40.162;18.294;2022-07-31T03:33:18;21.20;;;7.00;;
58681;SDS011;44460;40.162;18.294;2022-07-31T03:35:44;16.25;;;6.07;;
58681;SDS011;44460;40.162;18.294;2022-07-31T03:38:09;17.67;;;6.28;;
58681;SDS011;44460;40.162;18.294;2022-07-31T03:40:38;21.55;;;8.90;;
58681;SDS011;44460;40.162;18.294;2022-07-31T03:43:04;16.23;;;7.28;;
58681;SDS011;44460;40.162;18.294;2022-07-31T03:45:30;19.40;;;7.20;;
58681;SDS011;44460;40.162;18.294;2022-07-31T03:47:56;17.88;;;6.47;;
58681;SDS011;44460;40.162;18.294;2022-07-31T03:50:22;18.80;;;6.13;;
58681;SDS011;44460;40.162;18.294;2022-07-31T03:52:48;17.00;;;5.70;;
58681;SDS011;44460;40.162;18.294;2022-07-31T03:55:14;14.27;;;5.67;;
58681;SDS011;44460;40.162;18.294;2022-07-31T03:57:40;19.25;;;5.10;;
58681;SDS011;44460;40.162;18.294;2022-07-31T04:00:07;18.40;;;5.55;;
58681;SDS011;44460;40.162;18.294;2022-07-31T04:02:41;16.73;;;5.05;;
58681;SDS011;44460;40.162;18.294;2022-07-31T04:05:27;15.02;;;5.60;;
58681;SDS011;44460;40.162;18.294;2022-07-31T04:07:53;20.50;;;5.00;;
58681;SDS011;44460;40.162;18.294;2022-07-31T04:10:20;18.17;;;5.83;;
58681;SDS011;44460;40.162;18.294;2022-07-31T04:12:45;19.13;;;5.47;;
58681;SDS011;44460;40.162;18.294;2022-07-31T04:15:11;15.90;;;5.80;;
58681;SDS011;44460;40.162;18.294;2022-07-31T04:17:37;17.77;;;5.30;;
58681;SDS011;44460;40.162;18.294;2022-07-31T04:20:05;16.63;;;5.60;;
58681;SDS011;44460;40.162;18.294;2022-07-31T04:22:31;20.98;;;5.20;;
58681;SDS011;44460;40.162;18.294;2022-07-31T04:24:58;15.18;;;4.85;;
58681;SDS011;44460;40.162;18.294;2022-07-31T04:27:41;13.27;;;4.57;;
58681;SDS011;44460;40.162;18.294;2022-07-31T04:30:07;16.25;;;5.15;;
58681;SDS011;44460;40.162;18.294;2022-07-31T04:32:34;19.90;;;5.88;;
58681;SDS011;44460;40.162;18.294;2022-07-31T04:35:03;15.35;;;5.20;;
58681;SDS011;44460;40.162;18.294;2022-07-31T04:37:28;16.15;;;4.90;;
58681;SDS011;44460;40.162;18.294;2022-07-31T04:39:55;11.80;;;4.78;;
58681;SDS011;44460;40.162;18.294;2022-07-31T04:42:20;15.23;;;5.20;;
58681;SDS011;44460;40.162;18.294;2022-07-31T04:44:46;15.75;;;5.80;;
58681;SDS011;44460;40.162;18.294;2022-07-31T04:47:11;12.13;;;4.00;;
58681;SDS011;44460;40.162;18.294;2022-07-31T04:49:44;20.35;;;4.43;;
58681;SDS011;44460;40.162;18.294;2022-07-31T04:52:13;14.40;;;5.32;;
58681;SDS011;44460;40.162;18.294;2022-07-31T04:54:42;13.90;;;4.57;;
58681;SDS011;44460;40.162;18.294;2022-07-31T04:57:09;13.88;;;4.20;;
58681;SDS011;44460;40.162;18.294;2022-07-31T04:59:34;14.50;;;4.15;;
58681;SDS011;44460;40.162;18.294;2022-07-31T05:02:00;12.07;;;4.30;;
58681;SDS011;44460;40.162;18.294;2022-07-31T05:04:26;16.60;;;4.03;;
58681;SDS011;44460;40.162;18.294;2022-07-31T05:06:53;14.27;;;4.38;;
58681;SDS011;44460;40.162;18.294;2022-07-31T05:09:19;23.05;;;4.50;;
58681;SDS011;44460;40.162;18.294;2022-07-31T05:11:50;19.27;;;4.60;;
58681;SDS011;44460;40.162;18.294;2022-07-31T05:14:17;12.70;;;3.80;;
58681;SDS011;44460;40.162;18.294;2022-07-31T05:16:42;14.18;;;4.05;;
58681;SDS011;44460;40.162;18.294;2022-07-31T05:19:08;11.18;;;3.42;;
58681;SDS011;44460;40.162;18.294;2022-07-31T05:21:43;15.23;;;3.83;;
58681;SDS011;44460;40.162;18.294;2022-07-31T05:24:29;17.75;;;4.03;;
58681;SDS011;44460;40.162;18.294;2022-07-31T05:26:57;21.92;;;4.85;;
58681;SDS011;44460;40.162;18.294;2022-07-31T05:29:23;12.70;;;3.90;;
58681;SDS011;44460;40.162;18.294;2022-07-31T05:31:49;11.55;;;4.03;;
58681;SDS011;44460;40.162;18.294;2022-07-31T05:34:16;15.40;;;3.90;;
58681;SDS011;44460;40.162;18.294;2022-07-31T05:36:41;14.75;;;4.47;;
58681;SDS011;44460;40.162;18.294;2022-07-31T05:39:08;14.17;;;3.70;;
58681;SDS011;44460;40.162;18.294;2022-07-31T05:41:36;15.93;;;5.07;;
58681;SDS011;44460;40.162;18.294;2022-07-31T05:44:20;17.55;;;5.97;;
58681;SDS011;44460;40.162;18.294;2022-07-31T05:46:46;14.68;;;5.32;;
58681;SDS011;44460;40.162;18.294;2022-07-31T05:49:12;14.68;;;5.13;;
58681;SDS011;44460;40.162;18.294;2022-07-31T05:51:41;16.52;;;6.00;;
58681;SDS011;44460;40.162;18.294;2022-07-31T05:54:06;20.10;;;4.68;;
58681;SDS011;44460;40.162;18.294;2022-07-31T05:56:50;18.75;;;6.03;;
58681;SDS011;44460;40.162;18.294;2022-07-31T05:59:21;17.42;;;4.75;;
58681;SDS011;44460;40.162;18.294;2022-07-31T06:01:48;11.68;;;3.80;;
58681;SDS011;44460;40.162;18.294;2022-07-31T06:04:14;9.07;;;3.70;;
58681;SDS011;44460;40.162;18.294;2022-07-31T06:06:43;12.27;;;3.97;;
58681;SDS011;44460;40.162;18.294;2022-07-31T06:09:09;14.40;;;3.55;;
58681;SDS011;44460;40.162;18.294;2022-07-31T06:11:39;11.68;;;3.58;;
58681;SDS011;44460;40.162;18.294;2022-07-31T06:14:05;15.18;;;3.78;;
58681;SDS011;44460;40.162;18.294;2022-07-31T06:16:51;13.63;;;4.03;;
58681;SDS011;44460;40.162;18.294;2022-07-31T06:19:17;9.90;;;3.72;;
58681;SDS011;44460;40.162;18.294;2022-07-31T06:21:44;20.67;;;4.20;;
58681;SDS011;44460;40.162;18.294;2022-07-31T06:24:10;16.08;;;3.80;;
58681;SDS011;44460;40.162;18.294;2022-07-31T06:26:39;15.82;;;4.18;;
58681;SDS011;44460;40.162;18.294;2022-07-31T06:29:05;17.50;;;3.97;;
58681;SDS011;44460;40.162;18.294;2022-07-31T06:31:31;14.57;;;4.10;;
58681;SDS011;44460;40.162;18.294;2022-07-31T06:33:57;11.32;;;3.67;;
58681;SDS011;44460;40.162;18.294;2022-07-31T06:36:28;9.48;;;3.90;;
58681;SDS011;44460;40.162;18.294;2022-07-31T06:38:58;8.38;;;3.40;;
58681;SDS011;44460;40.162;18.294;2022-07-31T06:41:26;9.13;;;3.50;;
58681;SDS011;44460;40.162;18.294;2022-07-31T06:44:26;14.82;;;4.25;;
58681;SDS011;44460;40.162;18.294;2022-07-31T06:47:19;9.77;;;3.35;;
58681;SDS011;44460;40.162;18.294;2022-07-31T06:50:03;10.70;;;3.55;;
58681;SDS011;44460;40.162;18.294;2022-07-31T06:52:36;11.32;;;3.30;;
58681;SDS011;44460;40.162;18.294;2022-07-31T06:55:03;15.10;;;3.63;;
58681;SDS011;44460;40.162;18.294;2022-07-31T06:57:29;12.65;;;3.60;;
58681;SDS011;44460;40.162;18.294;2022-07-31T06:59:54;11.75;;;3.22;;
58681;SDS011;44460;40.162;18.294;2022-07-31T07:02:20;11.93;;;3.40;;
58681;SDS011;44460;40.162;18.294;2022-07-31T07:04:46;8.50;;;3.40;;
58681;SDS011;44460;40.162;18.294;2022-07-31T07:07:11;8.68;;;3.53;;
58681;SDS011;44460;40.162;18.294;2022-07-31T07:09:37;14.60;;;4.00;;
58681;SDS011;44460;40.162;18.294;2022-07-31T07:12:02;8.75;;;3.40;;
58681;SDS011;44460;40.162;18.294;2022-07-31T07:14:30;16.25;;;3.58;;
58681;SDS011;44460;40.162;18.294;2022-07-31T07:16:55;10.65;;;3.17;;
58681;SDS011;44460;40.162;18.294;2022-07-31T07:19:21;18.98;;;3.97;;
58681;SDS011;44460;40.162;18.294;2022-07-31T07:21:47;10.73;;;3.25;;
58681;SDS011;44460;40.162;18.294;2022-07-31T07:24:13;9.83;;;4.20;;
58681;SDS011;44460;40.162;18.294;2022-07-31T07:26:57;13.10;;;3.13;;
58681;SDS011;44460;40.162;18.294;2022-07-31T07:29:23;12.25;;;3.40;;
58681;SDS011;44460;40.162;18.294;2022-07-31T07:31:50;11.82;;;3.20;;
58681;SDS011;44460;40.162;18.294;2022-07-31T07:34:15;14.65;;;3.80;;
58681;SDS011;44460;40.162;18.294;2022-07-31T07:36:41;11.65;;;3.65;;
58681;SDS011;44460;40.162;18.294;2022-07-31T07:39:32;10.18;;;2.83;;
58681;SDS011;44460;40.162;18.294;2022-07-31T07:41:58;14.43;;;3.53;;
58681;SDS011;44460;40.162;18.294;2022-07-31T07:44:25;8.35;;;2.92;;
58681;SDS011;44460;40.162;18.294;2022-07-31T07:46:50;9.70;;;3.47;;
58681;SDS011;44460;40.162;18.294;2022-07-31T07:49:17;9.05;;;3.20;;
58681;SDS011;44460;40.162;18.294;2022-07-31T07:51:55;11.60;;;3.45;;
58681;SDS011;44460;40.162;18.294;2022-07-31T07:54:32;10.18;;;2.95;;
58681;SDS011;44460;40.162;18.294;2022-07-31T07:57:17;16.25;;;3.55;;
58681;SDS011;44460;40.162;18.294;2022-07-31T08:00:08;10.25;;;3.08;;
58681;SDS011;44460;40.162;18.294;2022-07-31T08:03:07;14.23;;;3.42;;
58681;SDS011;44460;40.162;18.294;2022-07-31T08:05:37;10.95;;;3.45;;
58681;SDS011;44460;40.162;18.294;2022-07-31T08:08:03;9.85;;;2.55;;
58681;SDS011;44460;40.162;18.294;2022-07-31T08:10:51;8.90;;;2.92;;
58681;SDS011;44460;40.162;18.294;2022-07-31T08:13:22;14.02;;;3.60;;
58681;SDS011;44460;40.162;18.294;2022-07-31T08:16:06;10.77;;;3.17;;
58681;SDS011;44460;40.162;18.294;2022-07-31T08:18:38;14.13;;;3.33;;
58681;SDS011;44460;40.162;18.294;2022-07-31T08:21:04;8.85;;;2.90;;
58681;SDS011;44460;40.162;18.294;2022-07-31T08:23:30;8.00;;;3.70;;
58681;SDS011;44460;40.162;18.294;2022-07-31T08:25:56;10.15;;;3.20;;
58681;SDS011;44460;40.162;18.294;2022-07-31T08:28:23;10.02;;;3.42;;
58681;SDS011;44460;40.162;18.294;2022-07-31T08:30:49;16.83;;;3.33;;
58681;SDS011;44460;40.162;18.294;2022-07-31T08:33:17;14.13;;;3.70;;
58681;SDS011;44460;40.162;18.294;2022-07-31T08:35:51;8.63;;;3.22;;
58681;SDS011;44460;40.162;18.294;2022-07-31T08:38:18;14.90;;;2.85;;
58681;SDS011;44460;40.162;18.294;2022-07-31T08:40:58;11.93;;;3.20;;
58681;SDS011;44460;40.162;18.294;2022-07-31T08:43:24;5.88;;;3.20;;
58681;SDS011;44460;40.162;18.294;2022-07-31T08:45:50;14.02;;;3.22;;
58681;SDS011;44460;40.162;18.294;2022-07-31T08:48:27;11.98;;;3.83;;
58681;SDS011;44460;40.162;18.294;2022-07-31T08:50:55;10.80;;;3.33;;
58681;SDS011;44460;40.162;18.294;2022-07-31T08:53:57;8.93;;;2.80;;
58681;SDS011;44460;40.162;18.294;2022-07-31T08:56:24;10.23;;;3.80;;
58681;SDS011;44460;40.162;18.294;2022-07-31T08:58:50;8.48;;;3.47;;
58681;SDS011;44460;40.162;18.294;2022-07-31T09:01:15;11.10;;;3.35;;
58681;SDS011;44460;40.162;18.294;2022-07-31T09:03:41;11.32;;;3.30;;
58681;SDS011;44460;40.162;18.294;2022-07-31T09:06:10;8.07;;;2.90;;
58681;SDS011;44460;40.162;18.294;2022-07-31T09:08:36;12.55;;;3.30;;
58681;SDS011;44460;40.162;18.294;2022-07-31T09:11:09;13.20;;;3.35;;
58681;SDS011;44460;40.162;18.294;2022-07-31T09:13:39;16.23;;;3.03;;
58681;SDS011;44460;40.162;18.294;2022-07-31T09:16:24;12.98;;;4.28;;
58681;SDS011;44460;40.162;18.294;2022-07-31T09:18:54;8.60;;;2.97;;
58681;SDS011;44460;40.162;18.294;2022-07-31T09:21:20;8.27;;;3.20;;
58681;SDS011;44460;40.162;18.294;2022-07-31T09:23:46;12.07;;;3.00;;
58681;SDS011;44460;40.162;18.294;2022-07-31T09:26:12;8.93;;;2.83;;
58681;SDS011;44460;40.162;18.294;2022-07-31T09:28:43;8.95;;;3.33;;
58681;SDS011;44460;40.162;18.294;2022-07-31T09:31:10;5.10;;;2.80;;
58681;SDS011;44460;40.162;18.294;2022-07-31T09:34:11;12.95;;;2.97;;
58681;SDS011;44460;40.162;18.294;2022-07-31T09:36:37;7.30;;;3.05;;
58681;SDS011;44460;40.162;18.294;2022-07-31T09:39:23;6.82;;;2.85;;
58681;SDS011;44460;40.162;18.294;2022-07-31T09:42:17;7.55;;;3.20;;
58681;SDS011;44460;40.162;18.294;2022-07-31T09:44:55;10.25;;;3.00;;
58681;SDS011;44460;40.162;18.294;2022-07-31T09:47:22;7.65;;;2.80;;
58681;SDS011;44460;40.162;18.294;2022-07-31T09:49:53;14.30;;;3.33;;
58681;SDS011;44460;40.162;18.294;2022-07-31T09:52:19;9.82;;;3.42;;
58681;SDS011;44460;40.162;18.294;2022-07-31T09:54:45;9.43;;;3.27;;
58681;SDS011;44460;40.162;18.294;2022-07-31T09:57:23;9.90;;;3.35;;
58681;SDS011;44460;40.162;18.294;2022-07-31T09:59:54;8.85;;;2.92;;
58681;SDS011;44460;40.162;18.294;2022-07-31T10:02:20;11.27;;;3.30;;
58681;SDS011;44460;40.162;18.294;2022-07-31T10:04:47;12.15;;;3.30;;
58681;SDS011;44460;40.162;18.294;2022-07-31T10:07:16;8.65;;;3.60;;
58681;SDS011;44460;40.162;18.294;2022-07-31T10:09:43;8.60;;;3.05;;
58681;SDS011;44460;40.162;18.294;2022-07-31T10:12:35;15.77;;;3.42;;
58681;SDS011;44460;40.162;18.294;2022-07-31T10:15:04;8.95;;;2.90;;
58681;SDS011;44460;40.162;18.294;2022-07-31T10:17:32;11.27;;;3.53;;
58681;SDS011;44460;40.162;18.294;2022-07-31T10:20:13;9.80;;;2.70;;
58681;SDS011;44460;40.162;18.294;2022-07-31T10:22:49;9.85;;;2.45;;
58681;SDS011;44460;40.162;18.294;2022-07-31T10:25:24;7.47;;;2.92;;
58681;SDS011;44460;40.162;18.294;2022-07-31T10:27:51;9.82;;;2.67;;
58681;SDS011;44460;40.162;18.294;2022-07-31T10:32:50;7.90;;;2.35;;
58681;SDS011;44460;40.162;18.294;2022-07-31T10:35:24;9.07;;;2.63;;
58681;SDS011;44460;40.162;18.294;2022-07-31T10:38:21;13.02;;;2.97;;
58681;SDS011;44460;40.162;18.294;2022-07-31T10:41:11;11.23;;;2.60;;
58681;SDS011;44460;40.162;18.294;2022-07-31T10:43:44;13.20;;;2.97;;
58681;SDS011;44460;40.162;18.294;2022-07-31T10:46:25;9.00;;;2.47;;
58681;SDS011;44460;40.162;18.294;2022-07-31T10:49:01;10.68;;;3.00;;
58681;SDS011;44460;40.162;18.294;2022-07-31T10:51:49;6.90;;;2.53;;
58681;SDS011;44460;40.162;18.294;2022-07-31T10:54:42;7.40;;;2.60;;
58681;SDS011;44460;40.162;18.294;2022-07-31T10:57:29;8.70;;;2.60;;
58681;SDS011;44460;40.162;18.294;2022-07-31T11:00:14;13.77;;;2.80;;
58681;SDS011;44460;40.162;18.294;2022-07-31T11:03:18;12.00;;;2.92;;
58681;SDS011;44460;40.162;18.294;2022-07-31T11:06:02;12.00;;;2.72;;
58681;SDS011;44460;40.162;18.294;2022-07-31T11:09:02;13.25;;;2.58;;
58681;SDS011;44460;40.162;18.294;2022-07-31T11:11:53;11.10;;;2.20;;
58681;SDS011;44460;40.162;18.294;2022-07-31T11:14:37;8.70;;;2.78;;
58681;SDS011;44460;40.162;18.294;2022-07-31T11:17:38;10.30;;;2.72;;
58681;SDS011;44460;40.162;18.294;2022-07-31T11:22:57;9.70;;;2.58;;
58681;SDS011;44460;40.162;18.294;2022-07-31T11:25:24;10.10;;;2.75;;
58681;SDS011;44460;40.162;18.294;2022-07-31T11:27:53;11.57;;;2.42;;
58681;SDS011;44460;40.162;18.294;2022-07-31T11:30:19;11.07;;;2.65;;
58681;SDS011;44460;40.162;18.294;2022-07-31T11:32:48;11.10;;;2.95;;
58681;SDS011;44460;40.162;18.294;2022-07-31T11:35:22;11.45;;;2.22;;
58681;SDS011;44460;40.162;18.294;2022-07-31T11:37:48;12.77;;;2.42;;
58681;SDS011;44460;40.162;18.294;2022-07-31T11:40:13;10.68;;;2.38;;
58681;SDS011;44460;40.162;18.294;2022-07-31T11:42:42;10.88;;;2.65;;
58681;SDS011;44460;40.162;18.294;2022-07-31T11:45:10;9.77;;;2.20;;
58681;SDS011;44460;40.162;18.294;2022-07-31T11:47:38;7.30;;;2.03;;
58681;SDS011;44460;40.162;18.294;2022-07-31T11:50:04;9.13;;;2.33;;
58681;SDS011;44460;40.162;18.294;2022-07-31T11:52:30;10.95;;;2.00;;
58681;SDS011;44460;40.162;18.294;2022-07-31T11:55:05;13.00;;;2.33;;
58681;SDS011;44460;40.162;18.294;2022-07-31T11:57:31;11.40;;;2.10;;
58681;SDS011;44460;40.162;18.294;2022-07-31T11:59:57;7.20;;;2.10;;
58681;SDS011;44460;40.162;18.294;2022-07-31T12:02:22;7.78;;;1.98;;
58681;SDS011;44460;40.162;18.294;2022-07-31T12:04:50;17.08;;;2.40;;
58681;SDS011;44460;40.162;18.294;2022-07-31T12:07:15;8.57;;;2.28;;
58681;SDS011;44460;40.162;18.294;2022-07-31T12:09:41;8.40;;;1.95;;
58681;SDS011;44460;40.162;18.294;2022-07-31T12:12:06;11.05;;;2.30;;
58681;SDS011;44460;40.162;18.294;2022-07-31T12:14:33;9.65;;;2.33;;
58681;SDS011;44460;40.162;18.294;2022-07-31T12:16:59;8.48;;;2.60;;
58681;SDS011;44460;40.162;18.294;2022-07-31T12:19:25;10.93;;;2.75;;
58681;SDS011;44460;40.162;18.294;2022-07-31T12:21:51;13.63;;;2.80;;
58681;SDS011;44460;40.162;18.294;2022-07-31T12:24:16;7.75;;;2.33;;
58681;SDS011;44460;40.162;18.294;2022-07-31T12:29:10;31.27;;;3.87;;
58681;SDS011;44460;40.162;18.294;2022-07-31T12:31:49;9.65;;;2.47;;
58681;SDS011;44460;40.162;18.294;2022-07-31T12:34:24;10.48;;;2.05;;
58681;SDS011;44460;40.162;18.294;2022-07-31T12:39:25;9.88;;;2.15;;
58681;SDS011;44460;40.162;18.294;2022-07-31T12:41:51;11.15;;;2.17;;
58681;SDS011;44460;40.162;18.294;2022-07-31T12:44:16;13.00;;;2.42;;
58681;SDS011;44460;40.162;18.294;2022-07-31T12:46:42;13.32;;;2.15;;
58681;SDS011;44460;40.162;18.294;2022-07-31T12:49:07;9.35;;;2.30;;
58681;SDS011;44460;40.162;18.294;2022-07-31T12:51:33;11.88;;;2.40;;
58681;SDS011;44460;40.162;18.294;2022-07-31T12:53:58;10.57;;;2.40;;
58681;SDS011;44460;40.162;18.294;2022-07-31T12:56:26;6.40;;;2.00;;
58681;SDS011;44460;40.162;18.294;2022-07-31T12:58:51;9.55;;;1.88;;
58681;SDS011;44460;40.162;18.294;2022-07-31T13:01:17;11.73;;;2.22;;
58681;SDS011;44460;40.162;18.294;2022-07-31T13:03:42;10.23;;;2.30;;
58681;SDS011;44460;40.162;18.294;2022-07-31T13:06:07;8.35;;;1.85;;
58681;SDS011;44460;40.162;18.294;2022-07-31T13:08:33;13.98;;;1.98;;
58681;SDS011;44460;40.162;18.294;2022-07-31T13:10:58;10.07;;;2.00;;
58681;SDS011;44460;40.162;18.294;2022-07-31T13:13:24;10.20;;;1.90;;
58681;SDS011;44460;40.162;18.294;2022-07-31T13:15:49;7.82;;;2.03;;
58681;SDS011;44460;40.162;18.294;2022-07-31T13:18:16;9.00;;;2.43;;
58681;SDS011;44460;40.162;18.294;2022-07-31T13:20:41;8.70;;;2.00;;
58681;SDS011;44460;40.162;18.294;2022-07-31T13:23:07;12.98;;;2.58;;
58681;SDS011;44460;40.162;18.294;2022-07-31T13:25:32;10.43;;;2.10;;
58681;SDS011;44460;40.162;18.294;2022-07-31T13:27:58;8.82;;;2.60;;
58681;SDS011;44460;40.162;18.294;2022-07-31T13:30:23;10.32;;;2.72;;
58681;SDS011;44460;40.162;18.294;2022-07-31T13:32:49;18.50;;;2.47;;
58681;SDS011;44460;40.162;18.294;2022-07-31T13:35:14;10.80;;;2.55;;
58681;SDS011;44460;40.162;18.294;2022-07-31T13:37:42;17.25;;;2.30;;
58681;SDS011;44460;40.162;18.294;2022-07-31T13:40:08;13.93;;;2.65;;
58681;SDS011;44460;40.162;18.294;2022-07-31T13:42:33;9.00;;;2.15;;
58681;SDS011;44460;40.162;18.294;2022-07-31T13:44:59;8.82;;;2.45;;
58681;SDS011;44460;40.162;18.294;2022-07-31T13:47:26;12.57;;;2.75;;
58681;SDS011;44460;40.162;18.294;2022-07-31T13:49:51;9.60;;;2.70;;
58681;SDS011;44460;40.162;18.294;2022-07-31T13:52:17;7.35;;;2.58;;
58681;SDS011;44460;40.162;18.294;2022-07-31T13:54:43;12.88;;;3.05;;
58681;SDS011;44460;40.162;18.294;2022-07-31T13:57:08;14.85;;;3.00;;
58681;SDS011;44460;40.162;18.294;2022-07-31T13:59:34;7.60;;;3.30;;
58681;SDS011;44460;40.162;18.294;2022-07-31T14:01:59;8.73;;;3.20;;
58681;SDS011;44460;40.162;18.294;2022-07-31T14:04:25;9.13;;;3.05;;
58681;SDS011;44460;40.162;18.294;2022-07-31T14:06:50;9.90;;;3.80;;
58681;SDS011;44460;40.162;18.294;2022-07-31T14:09:16;12.38;;;4.18;;
58681;SDS011;44460;40.162;18.294;2022-07-31T14:11:41;9.52;;;4.40;;
58681;SDS011;44460;40.162;18.294;2022-07-31T14:14:07;12.48;;;4.63;;
58681;SDS011;44460;40.162;18.294;2022-07-31T14:16:34;12.43;;;4.63;;
58681;SDS011;44460;40.162;18.294;2022-07-31T14:18:59;8.48;;;4.93;;
58681;SDS011;44460;40.162;18.294;2022-07-31T14:21:25;6.82;;;3.85;;
58681;SDS011;44460;40.162;18.294;2022-07-31T14:23:50;9.60;;;4.30;;
58681;SDS011;44460;40.162;18.294;2022-07-31T14:26:15;12.98;;;4.32;;
58681;SDS011;44460;40.162;18.294;2022-07-31T14:28:41;12.85;;;4.25;;
58681;SDS011;44460;40.162;18.294;2022-07-31T14:31:06;17.77;;;4.28;;
58681;SDS011;44460;40.162;18.294;2022-07-31T14:33:32;15.35;;;4.50;;
58681;SDS011;44460;40.162;18.294;2022-07-31T14:35:57;15.20;;;4.75;;
58681;SDS011;44460;40.162;18.294;2022-07-31T14:38:22;11.75;;;4.57;;
58681;SDS011;44460;40.162;18.294;2022-07-31T14:40:48;9.88;;;4.45;;
58681;SDS011;44460;40.162;18.294;2022-07-31T14:43:13;10.98;;;4.93;;
58681;SDS011;44460;40.162;18.294;2022-07-31T14:45:39;14.57;;;4.68;;
58681;SDS011;44460;40.162;18.294;2022-07-31T14:48:04;13.88;;;5.25;;
58681;SDS011;44460;40.162;18.294;2022-07-31T14:50:48;12.15;;;5.47;;
58681;SDS011;44460;40.162;18.294;2022-07-31T14:53:13;9.07;;;5.18;;
58681;SDS011;44460;40.162;18.294;2022-07-31T14:55:39;9.25;;;4.45;;
58681;SDS011;44460;40.162;18.294;2022-07-31T14:58:05;15.20;;;4.72;;
58681;SDS011;44460;40.162;18.294;2022-07-31T15:00:30;9.43;;;4.70;;
58681;SDS011;44460;40.162;18.294;2022-07-31T15:02:56;9.45;;;4.43;;
58681;SDS011;44460;40.162;18.294;2022-07-31T15:05:21;9.95;;;4.35;;
58681;SDS011;44460;40.162;18.294;2022-07-31T15:07:47;9.35;;;4.72;;
58681;SDS011;44460;40.162;18.294;2022-07-31T15:10:13;9.55;;;4.50;;